GMMX

Menara Airport

Marrakech, Morocco
METAR GMMX 201100Z 00000KT 8000 BKN023 16/12 Q1017 NOSIG
Observed Flight Rules
Nov-20 @ 11:00 UTC (39 minutes ago) Marginal Visual Flight Rules
Visibility Clouds
7,998 meters
  • Broken at 2,300' AGL
Temperatures Readings
Current 16°C / 61°F
Dewpoint 12°C / 54°F
Humidity 77%
Altimeter 30.03" Hg
Pressure 1017 hPa
Elevation 466
METAR GMMX 201100Z 00000KT 8000 BKN023 16/12 Q1017 NOSIG
Observed Flight Rules
Nov-20 @ 11:00 UTC
(39 minutes ago)
MVFR
Clouds
  • Broken at 2,300' AGL
Temperature Dewpoint
16°C / 61°F 12°C / 54°F
Humidity Altimeter Pressure
77% 30.03" Hg 1017 hPa